createdAt,value
2019-05-11T00:00:24.312Z,83.30
2019-05-11T00:02:54.798Z,83.80
2019-05-11T00:05:24.993Z,84.10
2019-05-11T00:07:55.119Z,84.20
2019-05-11T00:10:25.126Z,84.30
2019-05-11T00:12:57.274Z,84.40
2019-05-11T00:15:29.357Z,84.60
2019-05-11T00:18:03.597Z,84.70
2019-05-11T00:20:33.726Z,84.70
2019-05-11T00:23:03.791Z,84.30
2019-05-11T00:25:33.926Z,84.00
2019-05-11T00:28:04.209Z,83.40
2019-05-11T00:30:34.298Z,83.00
2019-05-11T00:33:04.442Z,83.50
2019-05-11T00:35:34.916Z,84.00
2019-05-11T00:38:07.136Z,83.80
2019-05-11T00:40:37.329Z,83.70
2019-05-11T00:43:09.070Z,83.30
2019-05-11T00:45:39.070Z,83.10
2019-05-11T00:48:09.082Z,82.90
2019-05-11T00:50:40.110Z,82.90
2019-05-11T00:53:10.654Z,83.20
2019-05-11T00:55:40.789Z,83.00
2019-05-11T00:58:13.625Z,83.90
2019-05-11T01:00:43.759Z,84.20
2019-05-11T01:03:13.758Z,83.30
2019-05-11T01:05:44.320Z,83.80
2019-05-11T01:08:15.982Z,84.30
2019-05-11T01:10:46.181Z,84.60
2019-05-11T01:13:16.379Z,84.80
2019-05-11T01:15:46.463Z,85.10
2019-05-11T01:18:16.669Z,85.70
2019-05-11T01:20:49.524Z,85.80
2019-05-11T01:23:20.213Z,85.90
2019-05-11T01:25:50.381Z,85.40
2019-05-11T01:28:20.384Z,84.80
2019-05-11T01:30:50.450Z,85.10
2019-05-11T01:33:22.328Z,85.00
2019-05-11T01:35:52.302Z,85.50
2019-05-11T01:38:27.430Z,85.40
2019-05-11T01:40:58.979Z,85.00
2019-05-11T01:43:29.424Z,84.90
2019-05-11T01:45:59.558Z,85.20
2019-05-11T01:48:30.114Z,85.40
2019-05-11T01:51:04.862Z,85.60
2019-05-11T01:53:35.477Z,86.40
2019-05-11T01:56:07.017Z,86.90
2019-05-11T01:58:37.092Z,87.40
2019-05-11T02:01:07.262Z,87.50
2019-05-11T02:03:39.997Z,87.30
2019-05-11T02:06:10.125Z,87.30
2019-05-11T02:08:40.359Z,87.90
2019-05-11T02:11:15.998Z,88.30
2019-05-11T02:13:42.302Z,87.90
2019-05-11T02:16:12.306Z,88.60
2019-05-11T02:18:42.474Z,89.10
2019-05-11T02:21:12.578Z,89.40
2019-05-11T02:23:42.624Z,89.80
2019-05-11T02:26:14.378Z,89.50
2019-05-11T02:28:44.675Z,89.70
2019-05-11T02:31:15.099Z,89.80
2019-05-11T02:33:45.310Z,90.00
2019-05-11T02:36:17.021Z,90.10
2019-05-11T02:38:47.138Z,90.00
2019-05-11T02:41:34.830Z,89.70
2019-05-11T02:43:48.983Z,90.00
2019-05-11T02:46:19.041Z,90.10
2019-05-11T02:48:49.119Z,90.20
2019-05-11T02:51:19.675Z,90.30
2019-05-11T02:53:50.504Z,90.30
2019-05-11T02:56:20.644Z,90.40
2019-05-11T02:58:51.850Z,90.40
2019-05-11T03:01:21.991Z,90.50
2019-05-11T03:03:52.071Z,90.60
2019-05-11T03:06:23.702Z,90.90
2019-05-11T03:08:56.101Z,90.80
2019-05-11T03:11:26.319Z,90.70
2019-05-11T03:13:56.469Z,90.90
2019-05-11T03:16:26.617Z,91.00
2019-05-11T03:18:56.774Z,91.10
2019-05-11T03:21:26.782Z,91.20
2019-05-11T03:23:56.902Z,91.20
2019-05-11T03:26:27.107Z,91.30
2019-05-11T03:28:57.179Z,91.20
2019-05-11T03:31:27.704Z,91.30
2019-05-11T03:33:58.479Z,91.40
2019-05-11T03:36:28.550Z,91.40
2019-05-11T03:38:58.540Z,91.50
2019-05-11T03:41:28.794Z,91.50
2019-05-11T03:43:58.885Z,91.40
2019-05-11T03:46:29.333Z,91.40
2019-05-11T03:48:59.488Z,91.40
2019-05-11T03:51:29.650Z,91.50
2019-05-11T03:53:59.787Z,91.40
2019-05-11T03:56:31.381Z,91.30
2019-05-11T03:59:01.521Z,91.20
2019-05-11T04:01:34.420Z,91.10
2019-05-11T04:04:04.627Z,90.70
2019-05-11T04:06:34.777Z,90.30
2019-05-11T04:09:07.198Z,90.10
2019-05-11T04:11:37.367Z,89.70
2019-05-11T04:14:07.443Z,89.30
2019-05-11T04:16:37.594Z,89.10
2019-05-11T04:19:07.604Z,88.60
2019-05-11T04:21:37.762Z,88.90
2019-05-11T04:24:07.812Z,87.90
2019-05-11T04:26:38.042Z,87.00
2019-05-11T04:29:08.129Z,86.50
2019-05-11T04:31:38.220Z,86.70
2019-05-11T04:34:08.628Z,85.70
2019-05-11T04:36:38.705Z,85.40
2019-05-11T04:39:16.800Z,86.20
2019-05-11T04:41:43.510Z,86.20
2019-05-11T04:44:17.768Z,86.50
2019-05-11T04:46:51.001Z,86.40
2019-05-11T04:49:34.994Z,86.40
2019-05-11T04:52:11.271Z,86.40
2019-05-11T04:54:44.262Z,86.30
2019-05-11T04:57:14.298Z,86.30
2019-05-11T05:02:42.634Z,85.80
2019-05-11T05:05:12.875Z,86.30
2019-05-11T05:07:49.345Z,86.00
2019-05-11T05:10:20.117Z,86.00
2019-05-11T05:12:51.373Z,85.80
2019-05-11T05:15:20.754Z,86.40
2019-05-11T05:17:52.351Z,86.30
2019-05-11T05:20:23.895Z,86.90
2019-05-11T05:22:55.115Z,87.60
2019-05-11T05:25:26.770Z,86.80
2019-05-11T05:27:56.939Z,86.40
2019-05-11T05:30:27.093Z,86.40
2019-05-11T05:32:57.321Z,86.70
2019-05-11T05:35:28.914Z,87.20
2019-05-11T05:38:00.669Z,87.20
2019-05-11T05:40:30.710Z,86.70
2019-05-11T05:43:00.849Z,86.80
2019-05-11T05:45:30.978Z,86.90
2019-05-11T05:48:01.191Z,86.60
2019-05-11T05:50:31.321Z,85.40
2019-05-11T05:53:01.340Z,85.60
2019-05-11T05:55:33.509Z,84.80
2019-05-11T05:58:05.666Z,84.30
2019-05-11T06:00:35.809Z,84.50
2019-05-11T06:03:05.966Z,84.90
2019-05-11T06:05:40.394Z,84.40
2019-05-11T06:08:12.580Z,84.50
2019-05-11T06:10:42.596Z,84.20
2019-05-11T06:13:14.584Z,83.40
2019-05-11T06:15:44.938Z,83.10
2019-05-11T06:18:14.986Z,81.80
2019-05-11T06:20:45.122Z,81.60
2019-05-11T06:23:15.182Z,81.10
2019-05-11T06:25:46.857Z,80.30
2019-05-11T06:28:19.867Z,79.80
2019-05-11T06:30:50.079Z,79.40
2019-05-11T06:33:20.063Z,79.70
2019-05-11T06:35:50.134Z,79.30
2019-05-11T06:38:20.287Z,79.20
2019-05-11T06:40:50.522Z,79.20
2019-05-11T06:43:20.592Z,77.80
2019-05-11T06:45:50.662Z,76.70
2019-05-11T06:48:20.801Z,75.90
2019-05-11T06:50:50.880Z,76.10
2019-05-11T06:56:13.458Z,75.60
2019-05-11T06:58:45.467Z,74.10
2019-05-11T07:01:15.390Z,73.90
2019-05-11T07:03:45.474Z,73.30
2019-05-11T07:06:15.540Z,73.70
2019-05-11T07:08:45.679Z,72.80
2019-05-11T07:11:15.801Z,72.70
2019-05-11T07:13:45.861Z,72.10
2019-05-11T07:16:16.072Z,71.00
2019-05-11T07:18:46.598Z,71.20
2019-05-11T07:21:16.726Z,71.00
2019-05-11T07:23:46.885Z,70.00
2019-05-11T07:26:17.134Z,70.60
2019-05-11T07:28:47.199Z,70.30
2019-05-11T07:31:17.380Z,70.90
2019-05-11T07:33:48.640Z,69.90
2019-05-11T07:36:18.869Z,69.10
2019-05-11T07:38:49.002Z,68.50
2019-05-11T07:41:19.135Z,68.30
2019-05-11T07:43:49.194Z,67.50
2019-05-11T07:46:19.330Z,66.50
2019-05-11T07:48:49.606Z,67.70
2019-05-11T07:51:19.681Z,66.70
2019-05-11T07:53:49.748Z,64.60
2019-05-11T07:56:20.250Z,64.30
2019-05-11T07:58:50.377Z,63.70
2019-05-11T08:01:22.722Z,65.40
2019-05-11T08:03:52.852Z,63.90
2019-05-11T08:06:22.998Z,64.00
2019-05-11T08:08:53.292Z,64.30
2019-05-11T08:11:28.087Z,63.20
2019-05-11T08:13:58.427Z,62.90
2019-05-11T08:16:28.904Z,63.50
2019-05-11T08:18:59.162Z,64.00
2019-05-11T08:21:29.456Z,63.80
2019-05-11T08:24:02.420Z,64.20
2019-05-11T08:26:32.647Z,64.60
2019-05-11T08:29:02.787Z,64.90
2019-05-11T08:31:32.919Z,64.50
2019-05-11T08:34:03.046Z,64.30
2019-05-11T08:36:33.117Z,63.70
2019-05-11T08:39:04.903Z,63.90
2019-05-11T08:41:35.577Z,63.40
2019-05-11T08:44:05.702Z,64.10
2019-05-11T08:46:38.371Z,62.90
2019-05-11T08:49:10.693Z,63.20
2019-05-11T08:51:40.926Z,62.90
2019-05-11T08:54:11.032Z,64.20
2019-05-11T08:56:41.131Z,62.60
2019-05-11T08:59:11.283Z,63.30
2019-05-11T09:01:41.408Z,64.10
2019-05-11T09:04:11.536Z,63.50
2019-05-11T09:06:41.606Z,62.00
2019-05-11T09:09:13.255Z,61.50
2019-05-11T09:11:43.362Z,60.60
2019-05-11T09:14:13.509Z,61.60
2019-05-11T09:16:43.639Z,60.30
2019-05-11T09:19:13.770Z,61.90
2019-05-11T09:21:43.898Z,62.80
2019-05-11T09:24:14.130Z,61.80
2019-05-11T09:26:47.689Z,61.40
2019-05-11T09:29:18.035Z,61.40
2019-05-11T09:31:48.699Z,62.30
2019-05-11T09:37:09.290Z,61.00
2019-05-11T09:39:41.026Z,61.20
2019-05-11T09:42:11.179Z,61.60
2019-05-11T09:44:42.457Z,61.50
2019-05-11T09:47:12.599Z,59.80
2019-05-11T09:49:47.659Z,60.40
2019-05-11T09:52:14.601Z,59.70
2019-05-11T09:54:44.581Z,60.20
2019-05-11T09:57:14.761Z,60.90
2019-05-11T09:59:44.814Z,60.30
2019-05-11T10:02:18.627Z,60.60
2019-05-11T10:04:48.415Z,61.60
2019-05-11T10:07:18.834Z,63.50
2019-05-11T10:09:50.670Z,64.40
2019-05-11T10:12:20.733Z,63.30
2019-05-11T10:14:50.965Z,63.40
2019-05-11T10:17:21.181Z,63.50
2019-05-11T10:19:51.393Z,63.30
2019-05-11T10:22:22.926Z,63.40
2019-05-11T10:24:54.662Z,63.90
2019-05-11T10:27:25.134Z,63.50
2019-05-11T10:29:55.569Z,63.20
2019-05-11T10:32:28.781Z,63.00
2019-05-11T10:34:59.058Z,63.20
2019-05-11T10:37:29.235Z,61.90
2019-05-11T10:39:59.547Z,61.90
2019-05-11T10:42:31.102Z,61.30
2019-05-11T10:45:01.850Z,61.30
2019-05-11T10:47:33.241Z,62.20
2019-05-11T10:50:05.362Z,63.60
2019-05-11T10:52:37.699Z,63.90
2019-05-11T10:55:08.797Z,64.00
2019-05-11T10:57:39.720Z,63.60
2019-05-11T11:00:10.799Z,63.90
2019-05-11T11:02:41.222Z,63.30
2019-05-11T11:05:11.494Z,64.20
2019-05-11T11:07:41.624Z,64.70
2019-05-11T11:10:13.594Z,65.70
2019-05-11T11:12:43.727Z,64.90
2019-05-11T11:15:14.469Z,63.80
2019-05-11T11:17:44.485Z,63.60
2019-05-11T11:20:18.483Z,62.80
2019-05-11T11:22:48.274Z,62.40
2019-05-11T11:25:18.669Z,62.30
2019-05-11T11:27:48.941Z,62.20
2019-05-11T11:30:19.446Z,63.00
2019-05-11T11:32:49.639Z,61.10
2019-05-11T11:35:19.854Z,62.50
2019-05-11T11:37:50.074Z,62.00
2019-05-11T11:40:20.307Z,61.30
2019-05-11T11:42:50.438Z,60.60
2019-05-11T11:45:20.901Z,60.40
2019-05-11T11:47:51.263Z,59.90
2019-05-11T11:50:21.537Z,60.10
2019-05-11T11:52:51.603Z,60.80
2019-05-11T11:55:21.669Z,61.20
2019-05-11T11:57:53.383Z,61.10
2019-05-11T12:00:23.686Z,61.40
2019-05-11T12:02:53.826Z,61.50
2019-05-11T12:05:24.394Z,61.30
2019-05-11T12:07:54.470Z,60.90
2019-05-11T12:10:28.490Z,61.90
2019-05-11T12:12:58.149Z,61.10
2019-05-11T12:15:29.334Z,61.00
2019-05-11T12:17:59.526Z,61.90
2019-05-11T12:20:29.513Z,62.30
2019-05-11T12:22:59.658Z,61.80
2019-05-11T12:25:49.443Z,62.10
2019-05-11T12:28:19.713Z,61.80
2019-05-11T12:31:18.487Z,61.30
2019-05-11T12:34:08.869Z,59.50
2019-05-11T12:36:40.206Z,60.20
2019-05-11T12:39:10.420Z,59.20
2019-05-11T12:41:40.633Z,59.80
2019-05-11T12:44:10.685Z,59.30
2019-05-11T12:46:42.995Z,58.40
2019-05-11T12:49:13.015Z,58.00
2019-05-11T12:51:48.768Z,56.90
2019-05-11T12:54:19.865Z,57.40
2019-05-11T12:56:50.346Z,56.90
2019-05-11T12:59:27.602Z,57.80
2019-05-11T13:02:08.198Z,57.20
2019-05-11T13:07:38.970Z,57.20
2019-05-11T13:13:02.766Z,56.40
2019-05-11T13:15:35.433Z,56.60
2019-05-11T13:18:08.367Z,56.60
2019-05-11T13:20:42.207Z,57.50
2019-05-11T13:23:11.731Z,57.30
2019-05-11T13:25:41.818Z,56.70
2019-05-11T13:28:11.934Z,57.50
2019-05-11T13:30:42.194Z,56.40
2019-05-11T13:33:12.283Z,57.20
2019-05-11T13:35:45.533Z,56.80
2019-05-11T13:38:18.743Z,57.30
2019-05-11T13:40:52.975Z,57.40
2019-05-11T13:43:22.974Z,57.20
2019-05-11T13:45:54.669Z,57.90
2019-05-11T13:48:24.646Z,57.40
2019-05-11T13:50:54.714Z,58.00
2019-05-11T13:53:27.769Z,58.10
2019-05-11T13:55:59.498Z,58.40
2019-05-11T13:58:31.349Z,59.00
2019-05-11T14:01:07.885Z,58.50
2019-05-11T14:03:37.718Z,59.60
2019-05-11T14:06:09.086Z,59.50
2019-05-11T14:08:42.179Z,59.40
2019-05-11T14:11:13.618Z,59.40
2019-05-11T14:13:43.810Z,59.00
2019-05-11T14:16:18.834Z,59.70
2019-05-11T14:21:48.810Z,59.20
2019-05-11T14:24:19.554Z,59.50
2019-05-11T14:26:49.699Z,59.70
2019-05-11T14:29:20.204Z,60.20
2019-05-11T14:31:57.994Z,59.80
2019-05-11T14:34:28.555Z,59.80
2019-05-11T14:36:58.770Z,60.20
2019-05-11T14:39:28.836Z,59.60
2019-05-11T14:41:59.031Z,60.10
2019-05-11T14:44:29.040Z,60.60
2019-05-11T14:46:59.567Z,59.90
2019-05-11T14:52:23.101Z,60.40
2019-05-11T14:54:58.382Z,59.90
2019-05-11T14:57:28.298Z,60.00
2019-05-11T15:00:00.026Z,60.50
2019-05-11T15:02:49.621Z,61.20
2019-05-11T15:05:22.815Z,60.90
2019-05-11T15:07:53.158Z,60.80
2019-05-11T15:10:23.477Z,60.90
2019-05-11T15:15:55.570Z,60.20
2019-05-11T15:18:37.800Z,59.80
2019-05-11T15:21:00.490Z,60.10
2019-05-11T15:23:30.544Z,60.10
2019-05-11T15:26:00.751Z,60.50
2019-05-11T15:28:33.458Z,60.70
2019-05-11T15:31:08.019Z,60.30
2019-05-11T15:33:38.476Z,61.00
2019-05-11T15:36:08.581Z,61.30
2019-05-11T15:38:38.777Z,61.80
2019-05-11T15:41:08.946Z,62.10
2019-05-11T15:43:38.999Z,61.80
2019-05-11T15:46:10.321Z,62.80
2019-05-11T15:48:55.749Z,63.00
2019-05-11T15:51:13.775Z,63.10
2019-05-11T15:53:43.863Z,62.90
2019-05-11T15:56:13.990Z,62.60
2019-05-11T15:58:44.002Z,64.70
2019-05-11T16:01:14.293Z,65.70
2019-05-11T16:03:44.355Z,65.50
2019-05-11T16:06:14.417Z,65.50
2019-05-11T16:08:45.625Z,65.80
2019-05-11T16:11:18.466Z,65.30
2019-05-11T16:13:53.751Z,65.60
2019-05-11T16:16:28.123Z,65.30
2019-05-11T16:19:10.571Z,65.00
2019-05-11T16:21:32.762Z,65.20
2019-05-11T16:24:03.351Z,65.50
2019-05-11T16:26:33.456Z,65.60
2019-05-11T16:29:03.542Z,65.90
2019-05-11T16:31:33.745Z,66.10
2019-05-11T16:34:07.834Z,66.10
2019-05-11T16:36:39.008Z,65.80
2019-05-11T16:39:10.470Z,65.30
2019-05-11T16:41:40.860Z,65.90
2019-05-11T16:44:11.066Z,66.60
2019-05-11T16:46:41.287Z,66.50
2019-05-11T16:49:24.869Z,66.30
2019-05-11T16:51:43.030Z,66.70
2019-05-11T16:54:13.164Z,66.60
2019-05-11T16:56:43.371Z,66.40
2019-05-11T16:59:14.772Z,66.70
2019-05-11T17:01:44.917Z,66.70
2019-05-11T17:04:15.146Z,66.50
2019-05-11T17:06:45.294Z,66.90
2019-05-11T17:09:15.390Z,66.90
2019-05-11T17:11:45.586Z,66.80
2019-05-11T17:14:15.742Z,66.90
2019-05-11T17:16:47.639Z,67.10
2019-05-11T17:19:18.400Z,67.30
2019-05-11T17:21:49.477Z,67.10
2019-05-11T17:27:12.109Z,67.10
2019-05-11T17:29:59.278Z,67.80
2019-05-11T17:32:30.003Z,68.10
2019-05-11T17:35:00.129Z,68.00
2019-05-11T17:37:32.375Z,68.40
2019-05-11T17:40:09.035Z,69.00
2019-05-11T17:45:28.337Z,70.90
2019-05-11T17:47:58.468Z,72.70
2019-05-11T17:50:28.457Z,75.50
2019-05-11T17:53:00.071Z,77.30
2019-05-11T17:55:30.569Z,78.10
2019-05-11T17:58:00.762Z,81.30
2019-05-11T18:00:30.979Z,82.70
2019-05-11T18:03:01.553Z,83.60
2019-05-11T18:05:37.787Z,84.80
2019-05-11T18:08:08.562Z,81.30
2019-05-11T18:10:38.565Z,80.30
2019-05-11T18:13:08.877Z,84.10
2019-05-11T18:15:39.047Z,87.60
2019-05-11T18:18:09.586Z,87.20
2019-05-11T18:20:59.331Z,90.30
2019-05-11T18:23:31.276Z,92.90
2019-05-11T18:26:04.930Z,94.80
2019-05-11T18:28:37.670Z,94.00
2019-05-11T18:31:07.264Z,95.10
2019-05-11T18:33:38.176Z,96.00
2019-05-11T18:36:09.834Z,96.40
2019-05-11T18:38:41.370Z,96.30
2019-05-11T18:41:13.109Z,95.60
2019-05-11T18:43:43.361Z,96.50
2019-05-11T18:46:13.678Z,96.10
2019-05-11T18:48:44.060Z,96.00
2019-05-11T18:51:14.371Z,95.80
2019-05-11T18:56:43.832Z,96.10
2019-05-11T18:59:14.143Z,95.50
2019-05-11T19:01:44.426Z,95.50
2019-05-11T19:04:15.106Z,96.50
2019-05-11T19:06:45.455Z,96.30
2019-05-11T19:09:17.853Z,96.50
2019-05-11T19:11:48.978Z,95.50
2019-05-11T19:14:19.487Z,95.50
2019-05-11T19:16:49.841Z,95.30
2019-05-11T19:19:20.158Z,96.20
2019-05-11T19:21:50.887Z,96.90
2019-05-11T19:24:21.840Z,96.60
2019-05-11T19:26:53.910Z,96.30
2019-05-11T19:29:24.691Z,96.40
2019-05-11T19:31:55.005Z,96.40
2019-05-11T19:34:25.354Z,96.00
2019-05-11T19:36:57.965Z,95.70
2019-05-11T19:39:28.081Z,95.80
2019-05-11T19:41:58.707Z,95.00
2019-05-11T19:44:30.180Z,95.40
2019-05-11T19:47:01.908Z,95.30
2019-05-11T19:49:34.067Z,95.00
2019-05-11T19:52:04.418Z,94.90
2019-05-11T19:54:34.893Z,94.80
2019-05-11T19:57:05.430Z,94.20
2019-05-11T19:59:38.733Z,94.20
2019-05-11T20:02:08.484Z,94.30
2019-05-11T20:04:38.817Z,93.90
2019-05-11T20:07:09.944Z,93.80
2019-05-11T20:09:40.286Z,93.70
2019-05-11T20:12:11.034Z,94.60
2019-05-11T20:14:41.315Z,95.00
2019-05-11T20:17:11.675Z,95.50
2019-05-11T20:19:41.855Z,95.10
2019-05-11T20:22:12.037Z,95.00
2019-05-11T20:24:42.367Z,94.70
2019-05-11T20:27:12.798Z,94.00
2019-05-11T20:29:43.169Z,93.90
2019-05-11T20:32:13.522Z,94.30
2019-05-11T20:34:43.841Z,94.20
2019-05-11T20:37:14.204Z,94.90
2019-05-11T20:39:44.938Z,92.30
2019-05-11T20:42:18.187Z,94.10
2019-05-11T20:44:49.154Z,92.90
2019-05-11T20:47:19.796Z,92.20
2019-05-11T20:49:51.275Z,91.20
2019-05-11T20:52:23.558Z,90.90
2019-05-11T20:54:53.890Z,90.00
2019-05-11T20:57:24.477Z,88.70
2019-05-11T20:59:54.808Z,90.90
2019-05-11T21:02:28.834Z,92.50
2019-05-11T21:04:59.950Z,93.30
2019-05-11T21:07:31.792Z,93.10
2019-05-11T21:10:03.492Z,93.20
2019-05-11T21:12:33.792Z,93.60
2019-05-11T21:15:07.465Z,93.90
2019-05-11T21:17:37.823Z,93.80
2019-05-11T21:20:09.817Z,93.80
2019-05-11T21:22:40.782Z,94.20
2019-05-11T21:28:17.927Z,94.00
2019-05-11T21:30:49.448Z,94.00
2019-05-11T21:33:19.768Z,94.40
2019-05-11T21:35:50.008Z,94.30
2019-05-11T21:38:24.480Z,94.40
2019-05-11T21:40:54.740Z,94.90
2019-05-11T21:43:25.971Z,94.80
2019-05-11T21:45:58.256Z,94.70
2019-05-11T21:48:28.183Z,94.70
2019-05-11T21:50:59.947Z,94.60
2019-05-11T21:53:30.525Z,94.90
2019-05-11T21:56:02.035Z,94.70
2019-05-11T21:58:32.347Z,95.00
2019-05-11T22:01:02.536Z,94.90
2019-05-11T22:03:33.231Z,95.10
2019-05-11T22:06:03.489Z,95.40
2019-05-11T22:08:33.788Z,94.80
2019-05-11T22:11:05.599Z,94.50
2019-05-11T22:13:37.965Z,94.90
2019-05-11T22:16:11.121Z,94.80
2019-05-11T22:18:41.427Z,95.30
2019-05-11T22:21:13.214Z,95.40
2019-05-11T22:23:43.576Z,95.40
2019-05-11T22:26:17.970Z,95.20
2019-05-11T22:28:49.984Z,95.20
2019-05-11T22:31:20.316Z,95.40
2019-05-11T22:33:50.545Z,95.50
2019-05-11T22:36:20.886Z,95.50
2019-05-11T22:38:51.167Z,95.50
2019-05-11T22:41:21.578Z,95.40
2019-05-11T22:43:51.839Z,94.70
2019-05-11T22:46:25.229Z,94.90
2019-05-11T22:48:55.410Z,94.10
2019-05-11T22:51:28.771Z,94.10
2019-05-11T22:53:59.403Z,93.90
2019-05-11T22:56:29.643Z,93.50
2019-05-11T22:59:00.962Z,93.20
2019-05-11T23:01:31.274Z,93.10
2019-05-11T23:04:05.735Z,93.10
2019-05-11T23:06:35.976Z,93.30
2019-05-11T23:09:08.085Z,92.70
2019-05-11T23:11:38.336Z,92.10
2019-05-11T23:14:10.070Z,91.80
2019-05-11T23:16:40.530Z,91.80
2019-05-11T23:19:11.200Z,91.40
2019-05-11T23:21:41.930Z,91.90
2019-05-11T23:24:12.181Z,91.30
2019-05-11T23:26:42.422Z,91.70
2019-05-11T23:29:12.742Z,91.20
2019-05-11T23:31:44.385Z,90.70
2019-05-11T23:34:14.623Z,91.20
2019-05-11T23:36:48.657Z,91.50
2019-05-11T23:39:18.888Z,90.30
2019-05-11T23:42:08.458Z,90.70
2019-05-11T23:44:39.662Z,91.00
2019-05-11T23:47:09.897Z,91.80
2019-05-11T23:49:40.208Z,91.60
2019-05-11T23:52:11.518Z,90.40
2019-05-11T23:54:41.778Z,90.50
2019-05-11T23:57:11.942Z,90.40
2019-05-11T23:59:42.330Z,90.60
